CW4848 Ferrals les Corbiares FR current weather conditions

sailwx.info

Wind from 074 at 3 knots gusting 10

Air temperature 20.6° C
Dewpoint 17.9° C

Last reported at 2019-Sep-20 19:28 UTC.
Time now 2019-Sep-20 20:56 UTC

Location: N 43°09' E 002°44'.
View on Google Maps.

See reports from other nearby stations

  
Tides and Currents Weather Stations Pressure Air Temp Water Temp Dewpoint Dewpoint Depression Visibility Wind Speed Wind Dir Waves Ship Positions
date/time (UTC)wind fromknots sea level pressurealtimeterstation pressurevisibilityair tempwater tempwave heightnotes
2019-Sep-20 19:28 074 3 gusting 10 20.6
2019-Sep-20 18:58 091 3 gusting 6 20.6
2019-Sep-20 18:28 086 2 gusting 13 21.1
2019-Sep-20 17:58 123 6 gusting 12 21.1
2019-Sep-20 17:28 107 6 gusting 10 21.7
2019-Sep-20 16:58 103 8 gusting 13 21.7
2019-Sep-20 16:28 113 7 gusting 15 21.7
2019-Sep-20 15:58 098 11 gusting 15 22.2
2019-Sep-20 14:58 110 8 gusting 17 22.2
2019-Sep-20 14:28 086 6 gusting 16 22.8
2019-Sep-20 13:58 096 10 gusting 18 23.3
2019-Sep-20 13:28 117 6 gusting 13 23.9
2019-Sep-20 12:28 098 6 gusting 13 23.9
2019-Sep-20 11:58 101 6 gusting 13 23.9
2019-Sep-20 11:28 103 9 gusting 18 23.9
2019-Sep-20 10:28 069 11 gusting 15 23.3
2019-Sep-20 09:58 098 6 gusting 12 22.2
2019-Sep-20 09:28 103 6 gusting 11 21.7
2019-Sep-20 08:28 044 3 gusting 8 20.0
2019-Sep-20 07:28 080 4 gusting 8 18.9
2019-Sep-20 06:58 075 3 gusting 4 19.4
2019-Sep-20 06:28 080 3 gusting 5 18.3
2019-Sep-20 05:58 098 1 gusting 3 17.8
2019-Sep-20 05:28 123 4 gusting 6 17.8
2019-Sep-20 04:58 111 3 gusting 5 18.3
2019-Sep-20 04:28 116 4 gusting 6 18.3
2019-Sep-20 03:58 114 3 gusting 6 18.3
2019-Sep-20 02:58 141 0 gusting 3 18.9
2019-Sep-20 02:28 142 4 gusting 6 18.9
2019-Sep-20 01:58 150 2 gusting 5 18.3
2019-Sep-20 01:28 168 3 gusting 5 17.8
2019-Sep-20 00:58 138 0 gusting 1 17.2
2019-Sep-20 00:28 117 0 gusting 1 18.3
2019-Sep-19 23:28 079 18.3
2019-Sep-19 22:58 083 1 gusting 3 18.9
2019-Sep-19 22:28 053 2 gusting 4 18.9
2019-Sep-19 21:58 049 18.9
2019-Sep-19 21:28 049 1 gusting 2 19.4
2019-Sep-19 20:58 049 1 gusting 3 20.0
2019-Sep-19 20:28 056 0 gusting 2 21.1
2019-Sep-19 19:58 152 1 gusting 5 22.8
2019-Sep-19 19:28 157 1 gusting 3 22.8
2019-Sep-19 18:28 207 2 gusting 6 24.4
2019-Sep-19 17:58 207 2 gusting 5 25.0
2019-Sep-19 17:28 252 3 gusting 6 26.1
2019-Sep-19 16:58 244 2 gusting 6 27.2
2019-Sep-19 15:58 267 2 gusting 6 27.8
2019-Sep-19 14:58 309 3 gusting 7 28.3
2019-Sep-19 14:28 251 4 gusting 7 27.8
2019-Sep-19 13:28 323 5 gusting 8 26.1
2019-Sep-19 12:58 313 5 gusting 10 25.6
2019-Sep-19 11:58 325 5 gusting 10 25.0
2019-Sep-19 11:28 319 5 gusting 7 25.0
2019-Sep-19 10:28 303 5 gusting 8 23.3
2019-Sep-19 09:58 315 3 gusting 6 22.2
2019-Sep-19 09:28 340 2 gusting 6 21.7
2019-Sep-19 08:58 173 20.6
2019-Sep-19 08:28 360 18.9
2019-Sep-19 07:58 217 0 gusting 2 18.3
2019-Sep-19 06:58 219 17.8
2019-Sep-19 05:58 167 17.8
2019-Sep-19 04:58 167 17.8
2019-Sep-19 03:28 061 1 gusting 3 18.3
2019-Sep-19 02:58 213 7 gusting 12 18.3
2019-Sep-19 02:28 206 3 gusting 5 18.3
2019-Sep-19 01:58 080 0 gusting 8 18.3
2019-Sep-19 01:28 360 0 gusting 2 18.3
2019-Sep-19 00:28 304 3 gusting 6 18.3
2019-Sep-18 23:58 360 0 gusting 6 18.3
2019-Sep-18 22:28 360 5 gusting 9 18.9
2019-Sep-18 21:58 202 5 gusting 9 19.4
2019-Sep-18 21:28 242 2 gusting 5 20.6
2019-Sep-18 20:58 017 20.6
2019-Sep-18 20:28 018 20.6